createdAt,value
2018-12-16T05:00:55.189Z,1.60
2018-12-16T05:01:55.060Z,1.61
2018-12-16T05:03:47.739Z,1.61
2018-12-16T05:04:47.602Z,1.57
2018-12-16T05:06:40.260Z,1.57
2018-12-16T05:07:40.138Z,1.54
2018-12-16T05:09:32.995Z,1.61
2018-12-16T05:10:32.688Z,1.53
2018-12-16T05:12:25.426Z,1.57
2018-12-16T05:13:25.300Z,1.58
2018-12-16T05:15:17.958Z,1.44
2018-12-16T05:16:17.840Z,1.47
2018-12-16T05:18:10.509Z,1.39
2018-12-16T05:19:10.383Z,1.44
2018-12-16T05:21:03.043Z,1.46
2018-12-16T05:22:02.926Z,1.36
2018-12-16T05:23:55.616Z,1.40
2018-12-16T05:24:55.482Z,1.42
2018-12-16T05:26:48.133Z,1.40
2018-12-16T05:27:48.019Z,1.33
2018-12-16T05:29:40.692Z,1.50
2018-12-16T05:30:40.561Z,1.54
2018-12-16T05:32:33.230Z,1.42
2018-12-16T05:33:33.095Z,1.50
2018-12-16T05:35:25.823Z,1.42
2018-12-16T05:36:25.708Z,1.47
2018-12-16T05:38:18.374Z,1.47
2018-12-16T05:39:18.248Z,1.33
2018-12-16T05:41:10.906Z,1.35
2018-12-16T05:42:10.790Z,1.35
2018-12-16T05:44:03.465Z,1.28
2018-12-16T05:45:03.335Z,1.30
2018-12-16T05:46:55.990Z,1.14
2018-12-16T05:47:55.868Z,1.14
2018-12-16T05:49:48.536Z,1.08
2018-12-16T05:50:48.406Z,0.97
2018-12-16T05:52:41.093Z,1.03
2018-12-16T05:53:40.960Z,0.89
2018-12-16T05:55:33.615Z,0.86
2018-12-16T05:56:33.513Z,0.90
2018-12-16T05:58:26.174Z,0.85
2018-12-16T05:59:26.040Z,0.84
2018-12-16T06:01:18.700Z,0.79
2018-12-16T06:02:18.584Z,0.71
2018-12-16T06:04:11.259Z,0.71
2018-12-16T06:05:11.125Z,0.71
2018-12-16T06:07:03.783Z,0.69
2018-12-16T06:08:03.671Z,0.63
2018-12-16T06:09:56.344Z,0.69
2018-12-16T06:10:56.212Z,0.67
2018-12-16T06:12:48.885Z,0.71
2018-12-16T06:13:48.750Z,0.74
2018-12-16T06:15:41.418Z,0.74
2018-12-16T06:16:41.305Z,0.81
2018-12-16T06:18:33.975Z,0.84
2018-12-16T06:19:33.853Z,0.92
2018-12-16T06:21:26.490Z,0.89
2018-12-16T06:22:26.383Z,0.93
2018-12-16T06:24:19.060Z,0.86
2018-12-16T06:25:18.995Z,0.85
2018-12-16T06:27:11.580Z,0.82
2018-12-16T06:28:11.463Z,0.86
2018-12-16T06:30:04.135Z,0.81
2018-12-16T06:31:04.005Z,0.81
2018-12-16T06:32:56.660Z,0.79
2018-12-16T06:33:56.545Z,0.82
2018-12-16T06:35:49.222Z,0.86
2018-12-16T06:36:49.086Z,0.82
2018-12-16T06:38:41.783Z,0.90
2018-12-16T06:39:41.650Z,0.93
2018-12-16T06:41:34.306Z,0.92
2018-12-16T06:42:34.192Z,0.93
2018-12-16T06:44:26.862Z,0.93
2018-12-16T06:45:26.728Z,0.97
2018-12-16T06:47:19.383Z,0.89
2018-12-16T06:48:19.269Z,0.94
2018-12-16T06:50:11.943Z,0.96
2018-12-16T06:51:11.808Z,0.86
2018-12-16T06:53:04.497Z,0.97
2018-12-16T06:54:04.362Z,1.00
2018-12-16T06:55:57.012Z,1.10
2018-12-16T06:56:56.902Z,0.99
2018-12-16T06:58:49.576Z,1.07
2018-12-16T06:59:49.444Z,1.02
2018-12-16T07:01:42.100Z,1.02
2018-12-16T07:02:41.986Z,1.11
2018-12-16T07:04:34.668Z,0.90
2018-12-16T07:05:34.532Z,0.97
2018-12-16T07:07:27.190Z,0.96
2018-12-16T07:08:27.068Z,1.00
2018-12-16T07:10:19.739Z,1.10
2018-12-16T07:11:19.607Z,1.08
2018-12-16T07:13:12.300Z,1.03
2018-12-16T07:14:12.160Z,1.12
2018-12-16T07:16:04.835Z,1.15
2018-12-16T07:17:04.694Z,1.21
2018-12-16T07:18:57.374Z,1.18
2018-12-16T07:19:57.240Z,1.08
2018-12-16T07:21:49.911Z,1.11
2018-12-16T07:22:49.775Z,1.07
2018-12-16T07:24:42.463Z,1.11
2018-12-16T07:25:42.324Z,1.03
2018-12-16T07:27:35.048Z,1.03
2018-12-16T07:28:34.875Z,1.12
2018-12-16T07:30:27.546Z,1.02
2018-12-16T07:31:27.409Z,1.07
2018-12-16T07:33:20.111Z,1.04
2018-12-16T07:34:19.950Z,1.14
2018-12-16T07:36:12.623Z,1.02
2018-12-16T07:37:18.841Z,1.10
2018-12-16T07:39:05.183Z,0.97
2018-12-16T07:40:05.044Z,1.04
2018-12-16T07:41:57.696Z,1.04
2018-12-16T07:42:57.577Z,1.03
2018-12-16T07:44:50.251Z,0.99
2018-12-16T07:45:50.123Z,0.97
2018-12-16T07:47:42.817Z,0.94
2018-12-16T07:48:42.666Z,0.99
2018-12-16T07:50:35.352Z,0.86
2018-12-16T07:51:35.202Z,1.02
2018-12-16T07:53:27.855Z,0.86
2018-12-16T07:54:27.739Z,0.92
2018-12-16T07:56:20.408Z,0.90
2018-12-16T07:57:20.276Z,0.92
2018-12-16T07:59:12.950Z,0.89
2018-12-16T08:00:12.812Z,0.93
2018-12-16T08:02:05.504Z,0.94
2018-12-16T08:03:05.373Z,0.93
2018-12-16T08:04:58.030Z,1.03
2018-12-16T08:05:57.884Z,0.97
2018-12-16T08:07:50.541Z,1.02
2018-12-16T08:08:50.424Z,1.02
2018-12-16T08:10:43.115Z,1.04
2018-12-16T08:11:42.972Z,0.99
2018-12-16T08:13:35.796Z,1.00
2018-12-16T08:14:35.539Z,1.04
2018-12-16T08:16:28.187Z,1.00
2018-12-16T08:17:28.056Z,1.07
2018-12-16T08:19:20.707Z,1.03
2018-12-16T08:20:20.590Z,1.02
2018-12-16T08:22:13.272Z,1.08
2018-12-16T08:23:13.136Z,1.10
2018-12-16T08:25:05.818Z,1.11
2018-12-16T08:26:05.681Z,1.11
2018-12-16T08:27:58.332Z,1.00
2018-12-16T08:28:58.221Z,1.11
2018-12-16T08:30:50.886Z,1.10
2018-12-16T08:31:50.757Z,1.11
2018-12-16T08:33:43.412Z,1.11
2018-12-16T08:34:43.305Z,1.10
2018-12-16T08:36:35.986Z,1.04
2018-12-16T08:37:35.871Z,1.12
2018-12-16T08:39:28.504Z,1.07
2018-12-16T08:40:28.391Z,1.08
2018-12-16T08:42:21.075Z,1.10
2018-12-16T08:43:20.940Z,1.04
2018-12-16T08:45:13.618Z,1.20
2018-12-16T08:46:13.518Z,1.18
2018-12-16T08:48:06.156Z,1.15
2018-12-16T08:49:06.022Z,1.15
2018-12-16T08:50:58.690Z,1.28
2018-12-16T08:51:58.560Z,1.33
2018-12-16T08:53:51.212Z,1.32
2018-12-16T08:54:51.103Z,1.32
2018-12-16T08:56:43.780Z,1.35
2018-12-16T08:57:43.653Z,1.36
2018-12-16T08:59:36.316Z,1.40
2018-12-16T09:00:36.215Z,1.42
2018-12-16T09:02:28.894Z,1.54
2018-12-16T09:03:28.749Z,1.47
2018-12-16T09:05:21.407Z,1.56
2018-12-16T09:06:21.294Z,1.60
2018-12-16T09:08:13.966Z,1.54
2018-12-16T09:09:13.838Z,1.65
2018-12-16T09:11:06.542Z,1.58
2018-12-16T09:12:06.432Z,1.60
2018-12-16T09:13:59.060Z,1.60
2018-12-16T09:14:58.944Z,1.61
2018-12-16T09:16:51.625Z,1.68
2018-12-16T09:17:51.481Z,1.68
2018-12-16T09:19:44.646Z,1.64
2018-12-16T09:20:44.020Z,1.64
2018-12-16T09:22:36.745Z,1.65
2018-12-16T09:23:36.620Z,1.64
2018-12-16T09:25:29.258Z,1.64
2018-12-16T09:26:29.145Z,1.71
2018-12-16T09:28:21.810Z,1.83
2018-12-16T09:29:21.687Z,1.71
2018-12-16T09:31:14.336Z,1.60
2018-12-16T09:32:14.228Z,1.61
2018-12-16T09:34:07.392Z,1.74
2018-12-16T09:35:07.016Z,1.79
2018-12-16T09:36:59.690Z,1.84
2018-12-16T09:37:59.550Z,1.82
2018-12-16T09:39:52.216Z,1.84
2018-12-16T09:40:52.091Z,1.90
2018-12-16T09:42:44.766Z,1.79
2018-12-16T09:43:44.631Z,1.82
2018-12-16T09:45:37.287Z,1.84
2018-12-16T09:46:37.171Z,1.97
2018-12-16T09:48:29.842Z,1.98
2018-12-16T09:49:29.726Z,1.97
2018-12-16T09:51:22.375Z,2.05
2018-12-16T09:52:23.655Z,2.12
2018-12-16T09:54:14.928Z,2.09
2018-12-16T09:55:14.800Z,2.18
2018-12-16T09:57:07.501Z,2.15
2018-12-16T09:58:07.366Z,2.16
2018-12-16T10:00:00.033Z,2.23
2018-12-16T10:00:59.919Z,2.12
2018-12-16T10:02:52.592Z,2.23
2018-12-16T10:03:52.459Z,2.18
2018-12-16T10:05:45.128Z,2.26
2018-12-16T10:06:45.008Z,2.15
2018-12-16T10:08:37.703Z,2.36
2018-12-16T10:09:37.553Z,2.38
2018-12-16T10:11:30.701Z,2.34
2018-12-16T10:12:30.584Z,2.31
2018-12-16T10:14:23.259Z,2.27
2018-12-16T10:15:23.146Z,2.40
2018-12-16T10:17:15.797Z,2.45
2018-12-16T10:18:15.669Z,2.45
2018-12-16T10:20:08.336Z,2.42
2018-12-16T10:21:08.220Z,2.44
2018-12-16T10:23:00.902Z,2.44
2018-12-16T10:24:00.765Z,2.45
2018-12-16T10:25:53.437Z,2.51
2018-12-16T10:26:53.335Z,2.59
2018-12-16T10:28:45.995Z,2.65
2018-12-16T10:29:45.894Z,2.55
2018-12-16T10:31:38.526Z,2.58
2018-12-16T10:32:38.406Z,2.67
2018-12-16T10:34:31.080Z,2.52
2018-12-16T10:35:30.958Z,2.44
2018-12-16T10:37:24.618Z,2.48
2018-12-16T10:38:24.487Z,2.44
2018-12-16T10:40:17.166Z,2.48
2018-12-16T10:41:17.036Z,2.51
2018-12-16T10:43:09.754Z,2.51
2018-12-16T10:44:09.575Z,2.44
2018-12-16T10:46:02.237Z,2.47
2018-12-16T10:47:02.125Z,2.42
2018-12-16T10:48:54.795Z,2.44
2018-12-16T10:49:54.669Z,2.51
2018-12-16T10:51:47.812Z,2.45
2018-12-16T10:52:47.701Z,2.47
2018-12-16T10:54:40.378Z,2.58
2018-12-16T10:55:40.247Z,2.47
2018-12-16T10:57:32.918Z,2.63
2018-12-16T10:58:32.811Z,2.58
2018-12-16T11:00:25.477Z,2.72
2018-12-16T11:01:25.351Z,2.70
2018-12-16T11:03:18.049Z,2.72
2018-12-16T11:04:17.888Z,2.77
2018-12-16T11:06:10.774Z,2.73
2018-12-16T11:07:10.433Z,2.72
2018-12-16T11:09:03.112Z,2.80
2018-12-16T11:10:02.979Z,2.69
2018-12-16T11:11:55.636Z,2.72
2018-12-16T11:12:55.517Z,2.69
2018-12-16T11:14:48.222Z,2.85
2018-12-16T11:15:48.091Z,2.80
2018-12-16T11:17:40.748Z,2.88
2018-12-16T11:18:40.672Z,2.95
2018-12-16T11:20:33.320Z,2.99
2018-12-16T11:21:33.196Z,2.93
2018-12-16T11:23:25.884Z,2.88
2018-12-16T11:24:25.743Z,2.87
2018-12-16T11:26:18.450Z,2.91
2018-12-16T11:27:18.306Z,2.85
2018-12-16T11:29:10.981Z,2.67
2018-12-16T11:30:10.853Z,2.67
2018-12-16T11:32:03.531Z,2.67
2018-12-16T11:33:03.411Z,2.65
2018-12-16T11:34:56.098Z,2.77
2018-12-16T11:35:55.958Z,2.73
2018-12-16T11:37:48.623Z,2.87
2018-12-16T11:38:48.525Z,2.91
2018-12-16T11:40:41.185Z,2.95
2018-12-16T11:41:41.053Z,2.85
2018-12-16T11:43:33.743Z,2.95
2018-12-16T11:44:33.646Z,2.87
2018-12-16T11:46:26.271Z,2.81
2018-12-16T11:47:26.154Z,2.80
2018-12-16T11:49:18.840Z,2.84
2018-12-16T11:50:18.714Z,2.73
2018-12-16T11:52:11.371Z,2.77
2018-12-16T11:53:11.265Z,2.84
2018-12-16T11:55:03.948Z,2.88
2018-12-16T11:56:03.813Z,2.85
2018-12-16T11:57:56.475Z,2.88
2018-12-16T11:58:56.369Z,2.90
2018-12-16T12:00:49.032Z,2.78
2018-12-16T12:01:48.899Z,2.83
2018-12-16T12:03:41.561Z,2.95
2018-12-16T12:04:41.453Z,2.93
2018-12-16T12:06:34.121Z,2.88
2018-12-16T12:07:33.996Z,2.78
2018-12-16T12:09:26.672Z,2.90
2018-12-16T12:10:26.546Z,2.84
2018-12-16T12:12:19.207Z,2.77
2018-12-16T12:13:19.093Z,2.81
2018-12-16T12:15:11.762Z,2.95
2018-12-16T12:16:11.667Z,2.96
2018-12-16T12:18:04.293Z,2.95
2018-12-16T12:19:04.180Z,2.98
2018-12-16T12:20:56.858Z,3.05
2018-12-16T12:21:56.746Z,3.02
2018-12-16T12:23:49.393Z,2.95
2018-12-16T12:24:49.276Z,2.98
2018-12-16T12:26:41.947Z,2.91
2018-12-16T12:27:41.823Z,2.93
2018-12-16T12:29:34.468Z,2.99
2018-12-16T12:30:34.352Z,2.90
2018-12-16T12:32:27.026Z,2.90
2018-12-16T12:33:26.897Z,2.96
2018-12-16T12:35:19.617Z,2.95
2018-12-16T12:36:19.487Z,2.96
2018-12-16T12:38:12.233Z,3.13
2018-12-16T12:39:12.120Z,3.05
2018-12-16T12:41:04.803Z,3.05
2018-12-16T12:42:04.668Z,3.08
2018-12-16T12:43:57.327Z,3.03
2018-12-16T12:44:57.213Z,3.02
2018-12-16T12:46:49.892Z,3.03
2018-12-16T12:47:49.767Z,2.98
2018-12-16T12:49:45.197Z,2.98
2018-12-16T12:50:42.302Z,2.98
2018-12-16T12:52:34.978Z,3.01
2018-12-16T12:53:34.853Z,2.99
2018-12-16T12:55:27.504Z,2.96
2018-12-16T12:56:27.395Z,2.96
2018-12-16T12:58:20.064Z,2.99
2018-12-16T12:59:19.934Z,3.02
2018-12-16T13:01:12.600Z,3.01
2018-12-16T13:02:12.491Z,2.96
2018-12-16T13:04:05.131Z,3.06
2018-12-16T13:05:05.016Z,3.05
2018-12-16T13:06:57.697Z,3.08
2018-12-16T13:07:57.563Z,3.08
2018-12-16T13:09:50.229Z,3.23
2018-12-16T13:10:50.118Z,3.21
2018-12-16T13:12:42.798Z,3.27
2018-12-16T13:13:42.663Z,3.29
2018-12-16T13:15:35.320Z,3.24
2018-12-16T13:16:35.201Z,3.30
2018-12-16T13:18:27.893Z,3.29
2018-12-16T13:19:27.765Z,3.24
2018-12-16T13:21:20.431Z,3.32
2018-12-16T13:22:20.299Z,3.23
2018-12-16T13:24:12.977Z,3.17
2018-12-16T13:25:12.847Z,3.23
2018-12-16T13:27:05.523Z,3.21
2018-12-16T13:28:05.391Z,3.09
2018-12-16T13:29:58.059Z,3.26
2018-12-16T13:30:57.927Z,3.19
2018-12-16T13:32:50.656Z,3.19
2018-12-16T13:33:50.489Z,3.17
2018-12-16T13:35:43.151Z,3.26
2018-12-16T13:36:43.028Z,3.27
2018-12-16T13:38:35.713Z,3.23
2018-12-16T13:39:35.590Z,3.20
2018-12-16T13:41:28.238Z,3.16
2018-12-16T13:42:28.129Z,3.29
2018-12-16T13:44:20.800Z,3.34
2018-12-16T13:45:20.668Z,3.19
2018-12-16T13:47:13.345Z,3.29
2018-12-16T13:48:13.219Z,3.26
2018-12-16T13:50:05.879Z,3.23
2018-12-16T13:51:05.760Z,3.21
2018-12-16T13:52:58.439Z,3.21
2018-12-16T13:53:58.382Z,3.16
2018-12-16T13:55:50.966Z,3.08
2018-12-16T13:56:50.854Z,3.11
2018-12-16T13:58:43.523Z,3.09
2018-12-16T13:59:43.388Z,3.05
2018-12-16T14:01:36.045Z,3.05
2018-12-16T14:02:35.931Z,3.01
2018-12-16T14:04:28.609Z,3.08
2018-12-16T14:05:28.475Z,3.03
2018-12-16T14:07:21.162Z,3.14
2018-12-16T14:08:21.031Z,3.06
2018-12-16T14:10:13.698Z,3.17
2018-12-16T14:11:13.577Z,3.08
2018-12-16T14:13:06.250Z,3.13
2018-12-16T14:14:06.122Z,3.17
2018-12-16T14:15:58.784Z,3.09
2018-12-16T14:16:58.664Z,3.13
2018-12-16T14:18:51.355Z,3.06
2018-12-16T14:19:51.218Z,3.17
2018-12-16T14:21:43.877Z,3.17
2018-12-16T14:22:43.761Z,3.17
2018-12-16T14:24:36.432Z,3.19
2018-12-16T14:25:36.308Z,3.20
2018-12-16T14:27:28.989Z,3.16
2018-12-16T14:28:28.844Z,3.13
2018-12-16T14:30:21.511Z,3.11
2018-12-16T14:31:21.396Z,3.08
2018-12-16T14:33:14.071Z,3.11
2018-12-16T14:34:13.936Z,3.03
2018-12-16T14:36:06.599Z,3.01
2018-12-16T14:37:06.479Z,3.13
2018-12-16T14:38:59.148Z,3.13
2018-12-16T14:39:59.021Z,3.05
2018-12-16T14:41:51.709Z,3.08
2018-12-16T14:42:51.594Z,3.06
2018-12-16T14:44:44.268Z,3.13
2018-12-16T14:45:44.139Z,3.05
2018-12-16T14:47:36.793Z,3.27
2018-12-16T14:48:36.680Z,3.24
2018-12-16T14:50:29.356Z,3.17
2018-12-16T14:51:29.226Z,3.08
2018-12-16T14:53:21.931Z,3.03
2018-12-16T14:54:21.803Z,3.08
2018-12-16T14:56:14.472Z,3.09
2018-12-16T14:57:14.370Z,3.08
2018-12-16T14:59:07.093Z,3.13
2018-12-16T15:00:06.904Z,3.16
2018-12-16T15:01:59.558Z,3.08
2018-12-16T15:02:59.449Z,3.09
2018-12-16T15:04:52.117Z,3.08
2018-12-16T15:05:51.988Z,3.08
2018-12-16T15:07:44.649Z,3.05
2018-12-16T15:08:44.534Z,3.16
2018-12-16T15:10:37.205Z,3.17
2018-12-16T15:11:37.076Z,3.11
2018-12-16T15:13:29.749Z,3.05
2018-12-16T15:14:29.623Z,3.20
2018-12-16T15:16:22.285Z,3.19
2018-12-16T15:17:22.166Z,3.13
2018-12-16T15:19:14.840Z,3.19
2018-12-16T15:20:14.714Z,3.14
2018-12-16T15:22:07.384Z,3.08
2018-12-16T15:23:07.265Z,3.09
2018-12-16T15:24:59.950Z,3.11
2018-12-16T15:26:02.102Z,3.13
2018-12-16T15:27:52.455Z,3.14
2018-12-16T15:28:52.416Z,3.11
2018-12-16T15:30:45.022Z,3.13
2018-12-16T15:31:44.888Z,3.09
2018-12-16T15:33:37.569Z,3.08
2018-12-16T15:34:37.435Z,3.21
2018-12-16T15:36:30.092Z,3.11
2018-12-16T15:37:29.985Z,3.08
2018-12-16T15:39:22.658Z,3.13
2018-12-16T15:40:22.522Z,3.05
2018-12-16T15:42:15.189Z,3.03
2018-12-16T15:43:15.072Z,3.08
2018-12-16T15:45:07.745Z,3.03
2018-12-16T15:46:07.611Z,3.05
2018-12-16T15:48:00.271Z,3.08
2018-12-16T15:49:00.158Z,3.08
2018-12-16T15:50:52.839Z,3.06
2018-12-16T15:51:52.704Z,3.06
2018-12-16T15:53:45.384Z,3.09
2018-12-16T15:54:45.249Z,2.96
2018-12-16T15:56:37.906Z,2.98
2018-12-16T15:57:37.796Z,2.99
2018-12-16T15:59:30.464Z,3.05
2018-12-16T16:00:30.339Z,3.05
2018-12-16T16:02:23.025Z,3.14
2018-12-16T16:03:22.910Z,3.16
2018-12-16T16:05:15.586Z,3.14
2018-12-16T16:06:15.452Z,3.08
2018-12-16T16:08:08.115Z,3.08
2018-12-16T16:09:08.009Z,3.08
2018-12-16T16:11:00.689Z,3.17
2018-12-16T16:12:00.556Z,3.16
2018-12-16T16:13:53.220Z,3.23
2018-12-16T16:14:53.079Z,3.20
2018-12-16T16:16:45.747Z,3.20
2018-12-16T16:17:45.619Z,3.19
2018-12-16T16:19:38.310Z,3.23
2018-12-16T16:20:38.165Z,3.27
2018-12-16T16:22:30.825Z,3.21
2018-12-16T16:23:30.708Z,3.19
2018-12-16T16:25:23.378Z,3.08
2018-12-16T16:26:23.245Z,3.16
2018-12-16T16:28:15.905Z,3.21
2018-12-16T16:29:15.793Z,3.20
2018-12-16T16:31:08.505Z,3.21
2018-12-16T16:32:08.369Z,3.26
2018-12-16T16:34:01.043Z,3.23
2018-12-16T16:35:00.911Z,3.30
2018-12-16T16:36:53.613Z,3.29
2018-12-16T16:38:00.487Z,3.21
2018-12-16T16:39:46.215Z,3.23
2018-12-16T16:40:46.020Z,3.20
2018-12-16T16:42:38.677Z,3.27
2018-12-16T16:43:38.564Z,3.27
2018-12-16T16:45:31.235Z,3.35
2018-12-16T16:46:31.102Z,3.21
2018-12-16T16:48:23.756Z,3.34
2018-12-16T16:49:23.642Z,3.39
2018-12-16T16:51:16.317Z,3.30
2018-12-16T16:52:16.183Z,3.32
2018-12-16T16:54:08.852Z,3.32
2018-12-16T16:55:08.734Z,3.30
2018-12-16T16:57:01.410Z,3.26
2018-12-16T16:58:01.273Z,3.34
2018-12-16T16:59:53.953Z,3.37
2018-12-16T17:00:53.818Z,3.37
2018-12-16T17:02:46.476Z,3.35
2018-12-16T17:03:46.361Z,3.39
2018-12-16T17:05:39.527Z,3.34
2018-12-16T17:06:39.421Z,3.30
2018-12-16T17:08:32.062Z,3.32
2018-12-16T17:09:31.945Z,3.43
2018-12-16T17:11:24.618Z,3.34
2018-12-16T17:12:24.490Z,3.34
2018-12-16T17:14:17.148Z,3.40
2018-12-16T17:15:17.036Z,3.32
2018-12-16T17:17:09.710Z,3.30
2018-12-16T17:18:09.580Z,3.30
2018-12-16T17:20:02.262Z,3.45
2018-12-16T17:21:02.132Z,3.27
2018-12-16T17:22:54.789Z,3.29
2018-12-16T17:23:54.669Z,3.24
2018-12-16T17:25:48.462Z,3.42
2018-12-16T17:26:47.213Z,3.19
2018-12-16T17:28:39.866Z,3.35
2018-12-16T17:29:39.758Z,3.34
2018-12-16T17:31:32.432Z,3.27
2018-12-16T17:32:32.301Z,3.34
2018-12-16T17:34:24.962Z,3.35
2018-12-16T17:35:24.843Z,3.29
2018-12-16T17:37:17.524Z,3.29
2018-12-16T17:38:17.399Z,3.32
2018-12-16T17:40:10.045Z,3.35
2018-12-16T17:41:09.937Z,3.34
2018-12-16T17:43:02.611Z,3.30
2018-12-16T17:44:02.479Z,3.39
2018-12-16T17:45:55.157Z,3.35
2018-12-16T17:46:55.019Z,3.46
2018-12-16T17:48:47.682Z,3.40
2018-12-16T17:49:47.565Z,3.43
2018-12-16T17:51:40.250Z,3.46
2018-12-16T17:52:40.131Z,3.46
2018-12-16T17:54:32.787Z,3.37
2018-12-16T17:55:32.689Z,3.49
2018-12-16T17:57:25.351Z,3.54
2018-12-16T17:58:25.219Z,3.42
2018-12-16T18:00:17.869Z,3.54
2018-12-16T18:01:17.756Z,3.49
2018-12-16T18:03:10.427Z,3.57
2018-12-16T18:04:10.306Z,3.57
2018-12-16T18:06:04.461Z,3.57
2018-12-16T18:07:02.837Z,3.54
2018-12-16T18:08:55.516Z,3.54
2018-12-16T18:09:55.381Z,3.58
2018-12-16T18:11:48.044Z,3.57
2018-12-16T18:12:47.927Z,3.58
2018-12-16T18:14:40.607Z,3.69
2018-12-16T18:15:40.469Z,3.64
2018-12-16T18:17:33.150Z,3.72
2018-12-16T18:18:33.014Z,3.75
2018-12-16T18:20:25.680Z,3.72
2018-12-16T18:21:25.566Z,3.74
2018-12-16T18:23:18.235Z,3.71
2018-12-16T18:24:18.105Z,3.85
2018-12-16T18:26:10.765Z,3.72
2018-12-16T18:27:10.649Z,3.79
2018-12-16T18:29:04.459Z,3.79
2018-12-16T18:30:03.259Z,3.79
2018-12-16T18:31:55.851Z,3.74
2018-12-16T18:32:55.737Z,3.72
2018-12-16T18:34:49.873Z,3.84
2018-12-16T18:35:48.278Z,3.66
2018-12-16T18:37:40.953Z,3.82
2018-12-16T18:38:40.819Z,3.75
2018-12-16T18:40:33.483Z,3.76
2018-12-16T18:41:33.367Z,3.78
2018-12-16T18:43:26.049Z,3.81
2018-12-16T18:44:25.912Z,3.84
2018-12-16T18:46:18.578Z,3.79
2018-12-16T18:47:18.466Z,3.81
2018-12-16T18:49:11.143Z,3.72
2018-12-16T18:50:11.014Z,3.79
2018-12-16T18:52:03.711Z,3.76
2018-12-16T18:53:03.602Z,3.71
2018-12-16T18:54:56.484Z,3.78
2018-12-16T18:55:56.161Z,3.78
2018-12-16T18:57:48.826Z,3.90
2018-12-16T18:58:48.715Z,3.89
2018-12-16T19:00:41.395Z,3.86
2018-12-16T19:01:41.259Z,3.85
2018-12-16T19:03:33.952Z,3.85
2018-12-16T19:04:33.813Z,3.85
2018-12-16T19:06:26.511Z,3.89
2018-12-16T19:07:26.370Z,3.90
2018-12-16T19:09:19.041Z,3.86
2018-12-16T19:10:18.909Z,3.97
2018-12-16T19:12:11.571Z,3.92
2018-12-16T19:13:11.451Z,3.93
2018-12-16T19:15:04.136Z,3.99
2018-12-16T19:16:04.003Z,3.94
2018-12-16T19:17:56.663Z,4.03
2018-12-16T19:18:56.540Z,3.94
2018-12-16T19:20:49.217Z,4.02
2018-12-16T19:21:49.082Z,3.96
2018-12-16T19:23:41.752Z,4.00
2018-12-16T19:24:41.638Z,4.07
2018-12-16T19:26:34.311Z,4.03
2018-12-16T19:27:34.179Z,4.10
2018-12-16T19:29:26.865Z,4.14
2018-12-16T19:30:26.721Z,4.08
2018-12-16T19:32:19.388Z,3.99
2018-12-16T19:33:19.268Z,4.04
2018-12-16T19:35:11.942Z,3.99
2018-12-16T19:36:11.811Z,4.07
2018-12-16T19:38:04.479Z,4.00
2018-12-16T19:39:04.362Z,4.00
2018-12-16T19:40:57.058Z,4.08
2018-12-16T19:41:56.907Z,4.10
2018-12-16T19:43:49.567Z,4.11
2018-12-16T19:44:49.445Z,4.04
2018-12-16T19:46:42.128Z,4.08
2018-12-16T19:47:41.993Z,4.08
2018-12-16T19:49:34.664Z,4.08
2018-12-16T19:50:34.535Z,4.14
2018-12-16T19:52:27.196Z,4.12
2018-12-16T19:53:27.082Z,4.07
2018-12-16T19:55:19.763Z,4.10
2018-12-16T19:56:19.628Z,4.14
2018-12-16T19:58:12.288Z,4.15
2018-12-16T19:59:12.174Z,4.24
2018-12-16T20:01:04.852Z,4.24
2018-12-16T20:02:04.721Z,4.20
2018-12-16T20:03:57.380Z,4.24
2018-12-16T20:04:57.271Z,4.21
2018-12-16T20:06:49.941Z,4.26
2018-12-16T20:07:49.817Z,4.26
2018-12-16T20:09:42.498Z,4.28
2018-12-16T20:10:42.362Z,4.21
2018-12-16T20:12:35.032Z,4.21
2018-12-16T20:13:34.915Z,4.38
2018-12-16T20:15:27.592Z,4.33
2018-12-16T20:16:27.461Z,4.33
2018-12-16T20:18:20.124Z,4.40
2018-12-16T20:19:20.011Z,4.39
2018-12-16T20:21:12.690Z,4.36
2018-12-16T20:22:12.554Z,4.24
2018-12-16T20:24:05.217Z,4.28
2018-12-16T20:25:05.174Z,4.32
2018-12-16T20:26:57.791Z,4.28
2018-12-16T20:27:57.658Z,4.26
2018-12-16T20:29:50.318Z,4.29
2018-12-16T20:30:50.206Z,4.30
2018-12-16T20:32:42.878Z,4.28
2018-12-16T20:33:42.744Z,4.24
2018-12-16T20:35:35.421Z,4.24
2018-12-16T20:36:35.295Z,4.26
2018-12-16T20:38:27.952Z,4.38
2018-12-16T20:39:27.841Z,4.33
2018-12-16T20:41:20.516Z,4.30
2018-12-16T20:42:20.386Z,4.38
2018-12-16T20:44:13.041Z,4.40
2018-12-16T20:45:12.936Z,4.39
2018-12-16T20:47:05.599Z,4.39
2018-12-16T20:48:05.465Z,4.38
2018-12-16T20:49:58.126Z,4.38
2018-12-16T20:50:58.026Z,4.40
2018-12-16T20:52:50.692Z,4.38
2018-12-16T20:53:50.557Z,4.44
2018-12-16T20:55:43.238Z,4.48
2018-12-16T20:56:43.115Z,4.38
2018-12-16T20:58:35.766Z,4.46
2018-12-16T20:59:35.655Z,4.54
2018-12-16T21:01:28.335Z,4.39
2018-12-16T21:02:28.194Z,4.47
2018-12-16T21:04:20.877Z,4.36
2018-12-16T21:05:20.745Z,4.38
2018-12-16T21:07:13.427Z,4.39
2018-12-16T21:08:13.287Z,4.36
2018-12-16T21:10:05.954Z,4.47
2018-12-16T21:11:05.834Z,4.48
2018-12-16T21:12:58.515Z,4.38
2018-12-16T21:13:58.381Z,4.40
2018-12-16T21:15:51.038Z,4.36
2018-12-16T21:16:50.921Z,4.44
2018-12-16T21:18:43.592Z,4.48
2018-12-16T21:19:43.461Z,4.44
2018-12-16T21:21:36.121Z,4.39
2018-12-16T21:22:36.012Z,4.40
2018-12-16T21:24:28.685Z,4.44
2018-12-16T21:25:28.555Z,4.48
2018-12-16T21:27:25.958Z,4.48
2018-12-16T21:28:21.097Z,4.53
2018-12-16T21:30:13.777Z,4.47
2018-12-16T21:31:13.647Z,4.51
2018-12-16T21:33:06.307Z,4.50
2018-12-16T21:34:06.190Z,4.58
2018-12-16T21:35:58.866Z,4.54
2018-12-16T21:36:58.739Z,4.54
2018-12-16T21:38:51.399Z,4.61
2018-12-16T21:39:51.282Z,4.61
2018-12-16T21:41:43.962Z,4.57
2018-12-16T21:42:43.879Z,4.65
2018-12-16T21:44:36.520Z,4.60
2018-12-16T21:45:36.375Z,4.46
2018-12-16T21:47:29.036Z,4.54
2018-12-16T21:48:28.920Z,4.66
2018-12-16T21:50:21.595Z,4.60
2018-12-16T21:51:21.469Z,4.64
2018-12-16T21:53:14.121Z,4.72
2018-12-16T21:54:14.011Z,4.69
2018-12-16T21:56:06.684Z,4.71
2018-12-16T21:57:06.568Z,4.64
2018-12-16T21:58:59.234Z,4.71
2018-12-16T21:59:59.130Z,4.71
2018-12-16T22:01:51.788Z,4.66
2018-12-16T22:02:51.662Z,4.71
2018-12-16T22:04:45.019Z,4.72
2018-12-16T22:05:44.209Z,4.68
2018-12-16T22:07:36.884Z,4.72
2018-12-16T22:08:36.818Z,4.71
2018-12-16T22:10:29.409Z,4.74
2018-12-16T22:11:29.294Z,4.76
2018-12-16T22:13:21.960Z,4.71
2018-12-16T22:14:21.832Z,4.74
2018-12-16T22:16:14.512Z,4.75
2018-12-16T22:17:14.375Z,4.78
2018-12-16T22:19:07.044Z,4.84
2018-12-16T22:20:06.943Z,4.75
2018-12-16T22:21:59.617Z,4.75
2018-12-16T22:22:59.485Z,4.74
2018-12-16T22:24:52.150Z,4.74
2018-12-16T22:25:52.024Z,4.78
2018-12-16T22:27:44.706Z,4.90
2018-12-16T22:28:44.573Z,4.75
2018-12-16T22:30:37.227Z,4.74
2018-12-16T22:31:37.122Z,4.79
2018-12-16T22:33:29.791Z,4.65
2018-12-16T22:34:29.667Z,4.68
2018-12-16T22:36:22.327Z,4.87
2018-12-16T22:37:22.208Z,4.90
2018-12-16T22:39:14.878Z,4.85
2018-12-16T22:40:14.753Z,4.85
2018-12-16T22:42:07.413Z,4.87
2018-12-16T22:43:07.298Z,4.84
2018-12-16T22:45:00.003Z,4.90
2018-12-16T22:45:59.837Z,4.90
2018-12-16T22:47:52.526Z,4.91
2018-12-16T22:48:52.385Z,4.90
2018-12-16T22:50:45.053Z,4.85
2018-12-16T22:51:44.926Z,4.87
2018-12-16T22:53:39.011Z,4.90
2018-12-16T22:54:37.476Z,4.88
2018-12-16T22:56:30.129Z,4.90
2018-12-16T22:57:30.017Z,4.87
2018-12-16T22:59:22.693Z,4.88
